createdAt,value
2023-07-18T00:02:57.473Z,69.60
2023-07-18T00:06:00.388Z,70.09
2023-07-18T00:09:05.220Z,70.20
2023-07-18T00:12:09.681Z,70.29
2023-07-18T00:15:14.217Z,70.09
2023-07-18T00:18:16.957Z,70.03
2023-07-18T00:21:19.985Z,70.48
2023-07-18T00:24:22.819Z,70.35
2023-07-18T00:27:25.613Z,70.23
2023-07-18T00:30:29.768Z,70.29
2023-07-18T00:33:32.386Z,70.48
2023-07-18T00:36:35.001Z,70.41
2023-07-18T00:39:37.884Z,70.47
2023-07-18T00:42:40.627Z,70.31
2023-07-18T00:45:45.521Z,70.45
2023-07-18T00:48:48.237Z,70.58
2023-07-18T00:51:50.877Z,70.65
2023-07-18T00:54:53.572Z,70.87
2023-07-18T00:57:56.398Z,70.62
2023-07-18T01:01:01.459Z,70.79
2023-07-18T01:04:04.307Z,71.05
2023-07-18T01:07:07.267Z,71.49
2023-07-18T01:10:17.390Z,71.59
2023-07-18T01:13:20.059Z,71.45
2023-07-18T01:16:24.084Z,71.60
2023-07-18T01:19:26.840Z,71.64
2023-07-18T01:22:30.794Z,71.73
2023-07-18T01:25:34.618Z,71.78
2023-07-18T01:28:37.266Z,71.78
2023-07-18T01:31:39.957Z,71.54
2023-07-18T01:34:42.989Z,71.99
2023-07-18T01:37:47.641Z,72.04
2023-07-18T01:40:50.345Z,71.97
2023-07-18T01:43:53.193Z,72.10
2023-07-18T01:46:55.973Z,72.13
2023-07-18T01:49:58.570Z,72.16
2023-07-18T01:53:02.717Z,72.27
2023-07-18T01:56:05.685Z,72.27
2023-07-18T01:59:08.328Z,72.28
2023-07-18T02:02:11.050Z,72.69
2023-07-18T02:05:14.901Z,72.60
2023-07-18T02:08:18.922Z,72.78
2023-07-18T02:11:21.744Z,72.87
2023-07-18T02:14:24.722Z,72.93
2023-07-18T02:17:27.389Z,73.23
2023-07-18T02:20:30.099Z,73.36
2023-07-18T02:23:34.164Z,73.41
2023-07-18T02:26:36.824Z,73.50
2023-07-18T02:29:39.507Z,73.51
2023-07-18T02:32:42.420Z,73.56
2023-07-18T02:35:49.559Z,73.63
2023-07-18T02:38:53.747Z,73.74
2023-07-18T02:41:56.466Z,73.86
2023-07-18T02:44:59.212Z,73.84
2023-07-18T02:48:01.959Z,73.94
2023-07-18T02:51:04.795Z,74.01
2023-07-18T02:54:08.801Z,74.06
2023-07-18T02:57:11.394Z,74.05
2023-07-18T03:00:21.333Z,74.01
2023-07-18T03:03:24.506Z,74.40
2023-07-18T03:06:27.176Z,74.64
2023-07-18T03:09:34.854Z,74.55
2023-07-18T03:12:37.428Z,74.86
2023-07-18T03:15:40.698Z,75.17
2023-07-18T03:18:43.344Z,75.46
2023-07-18T03:21:46.023Z,75.32
2023-07-18T03:24:49.979Z,75.71
2023-07-18T03:27:53.153Z,75.46
2023-07-18T03:30:55.857Z,75.90
2023-07-18T03:33:58.566Z,75.60
2023-07-18T03:37:01.212Z,75.85
2023-07-18T03:40:07.417Z,75.78
2023-07-18T03:43:10.041Z,75.83
2023-07-18T03:46:12.717Z,76.29
2023-07-18T03:49:15.363Z,75.80
2023-07-18T03:52:18.010Z,75.99
2023-07-18T03:55:22.189Z,75.73
2023-07-18T03:58:24.832Z,75.87
2023-07-18T04:01:27.452Z,75.73
2023-07-18T04:04:31.926Z,75.77
2023-07-18T04:07:34.613Z,75.62
2023-07-18T04:10:38.820Z,75.62
2023-07-18T04:13:41.395Z,75.58
2023-07-18T04:16:44.029Z,76.20
2023-07-18T04:19:46.734Z,76.38
2023-07-18T04:22:49.640Z,76.39
2023-07-18T04:25:57.819Z,76.73
2023-07-18T04:29:00.548Z,77.18
2023-07-18T04:32:03.269Z,77.23
2023-07-18T04:35:07.164Z,77.26
2023-07-18T04:38:10.523Z,77.79
2023-07-18T04:41:14.523Z,77.93
2023-07-18T04:44:17.123Z,77.66
2023-07-18T04:47:19.824Z,77.67
2023-07-18T04:50:22.557Z,77.67
2023-07-18T04:53:27.662Z,77.48
2023-07-18T04:56:31.669Z,77.42
2023-07-18T04:59:35.692Z,77.51
2023-07-18T05:02:39.231Z,77.34
2023-07-18T05:05:43.787Z,77.16
2023-07-18T05:08:47.949Z,76.97
2023-07-18T05:11:52.063Z,76.72
2023-07-18T05:14:54.666Z,76.47
2023-07-18T05:17:57.340Z,76.71
2023-07-18T05:21:00.034Z,76.98
2023-07-18T05:24:02.745Z,77.18
2023-07-18T05:27:07.328Z,77.50
2023-07-18T05:30:13.160Z,77.79
2023-07-18T05:33:15.803Z,78.03
2023-07-18T05:36:18.395Z,78.18
2023-07-18T05:39:21.058Z,78.35
2023-07-18T05:42:25.401Z,78.05
2023-07-18T05:45:28.308Z,78.39
2023-07-18T05:48:31.720Z,78.30
2023-07-18T05:51:34.434Z,78.58
2023-07-18T05:54:39.413Z,78.80
2023-07-18T05:57:43.937Z,79.16
2023-07-18T06:00:46.565Z,79.30
2023-07-18T06:03:49.245Z,79.42
2023-07-18T06:06:51.989Z,79.23
2023-07-18T06:09:54.689Z,79.21
2023-07-18T06:12:58.680Z,79.23
2023-07-18T06:16:01.305Z,79.38
2023-07-18T06:19:04.005Z,79.53
2023-07-18T06:22:06.907Z,79.64
2023-07-18T06:25:10.643Z,79.72
2023-07-18T06:28:14.634Z,79.67
2023-07-18T06:31:17.483Z,79.66
2023-07-18T06:34:20.498Z,79.89
2023-07-18T06:37:23.200Z,79.70
2023-07-18T06:40:25.864Z,79.58
2023-07-18T06:43:29.864Z,79.89
2023-07-18T06:46:32.490Z,79.71
2023-07-18T06:49:35.214Z,79.65
2023-07-18T06:52:37.868Z,79.67
2023-07-18T06:55:42.197Z,79.64
2023-07-18T06:58:46.164Z,80.07
2023-07-18T07:01:48.772Z,80.17
2023-07-18T07:04:51.456Z,80.16
2023-07-18T07:07:54.724Z,80.39
2023-07-18T07:11:04.961Z,80.29
2023-07-18T07:14:09.072Z,80.21
2023-07-18T07:17:11.746Z,79.93
2023-07-18T07:20:15.038Z,79.92
2023-07-18T07:23:17.921Z,79.71
2023-07-18T07:26:20.802Z,79.70
2023-07-18T07:29:24.862Z,79.54
2023-07-18T07:32:28.093Z,79.52
2023-07-18T07:35:31.085Z,79.35
2023-07-18T07:38:33.773Z,79.25
2023-07-18T07:41:36.423Z,79.29
2023-07-18T07:44:40.341Z,79.74
2023-07-18T07:47:43.018Z,79.54
2023-07-18T07:50:45.708Z,79.22
2023-07-18T07:53:48.335Z,79.54
2023-07-18T07:56:51.114Z,79.50
2023-07-18T07:59:55.132Z,79.64
2023-07-18T08:02:57.724Z,78.76
2023-07-18T08:06:01.534Z,78.71
2023-07-18T08:09:04.457Z,78.75
2023-07-18T08:12:08.480Z,78.28
2023-07-18T08:15:12.602Z,77.49
2023-07-18T08:18:15.160Z,77.15
2023-07-18T08:21:20.115Z,76.62
2023-07-18T08:24:23.314Z,76.62
2023-07-18T08:27:25.902Z,76.31
2023-07-18T08:30:29.936Z,75.44
2023-07-18T08:33:32.652Z,75.16
2023-07-18T08:36:36.831Z,74.97
2023-07-18T08:39:39.477Z,74.88
2023-07-18T08:42:42.231Z,74.42
2023-07-18T08:45:46.286Z,73.73
2023-07-18T08:48:49.439Z,72.73
2023-07-18T08:51:53.520Z,72.53
2023-07-18T08:54:56.129Z,72.60
2023-07-18T08:57:58.857Z,72.74
2023-07-18T09:01:02.857Z,72.74
2023-07-18T09:04:05.854Z,72.22
2023-07-18T09:07:09.171Z,71.75
2023-07-18T09:10:11.870Z,71.07
2023-07-18T09:13:14.489Z,70.21
2023-07-18T09:16:19.289Z,69.67
2023-07-18T09:19:22.013Z,69.06
2023-07-18T09:22:25.389Z,68.09
2023-07-18T09:25:28.761Z,67.68
2023-07-18T09:28:33.700Z,67.46
2023-07-18T09:31:38.052Z,67.15
2023-07-18T09:34:40.750Z,66.89
2023-07-18T09:37:46.646Z,66.61
2023-07-18T09:40:50.760Z,65.61
2023-07-18T09:44:05.993Z,65.40
2023-07-18T09:47:17.677Z,63.75
2023-07-18T09:50:20.396Z,63.04
2023-07-18T09:53:23.137Z,62.38
2023-07-18T09:56:26.252Z,61.68
2023-07-18T09:59:29.350Z,61.71
2023-07-18T10:02:33.751Z,61.63
2023-07-18T10:05:36.473Z,61.03
2023-07-18T10:08:39.279Z,60.79
2023-07-18T10:12:09.634Z,60.56
2023-07-18T10:15:12.402Z,60.41
2023-07-18T10:18:19.651Z,59.85
2023-07-18T10:21:29.636Z,59.65
2023-07-18T10:24:33.276Z,59.55
2023-07-18T10:27:39.935Z,58.97
2023-07-18T10:30:43.800Z,58.38
2023-07-18T10:34:12.285Z,58.30
2023-07-18T10:37:15.478Z,57.69
2023-07-18T10:40:32.658Z,57.14
2023-07-18T10:43:35.451Z,56.63
2023-07-18T10:46:39.410Z,55.88
2023-07-18T10:49:43.797Z,55.71
2023-07-18T10:52:46.490Z,55.69
2023-07-18T10:55:49.427Z,55.11
2023-07-18T10:58:53.318Z,54.74
2023-07-18T11:01:56.218Z,54.04
2023-07-18T11:05:00.371Z,53.91
2023-07-18T11:08:03.380Z,53.35
2023-07-18T11:11:06.557Z,52.60
2023-07-18T11:14:09.270Z,52.31
2023-07-18T11:17:13.856Z,51.55
2023-07-18T11:20:17.988Z,51.25
2023-07-18T11:23:21.209Z,50.94
2023-07-18T11:26:23.836Z,50.07
2023-07-18T11:29:27.656Z,48.94
2023-07-18T11:32:34.698Z,48.27
2023-07-18T11:35:38.652Z,47.88
2023-07-18T11:38:41.605Z,47.65
2023-07-18T11:41:45.044Z,47.27
2023-07-18T11:44:48.930Z,46.93
2023-07-18T11:47:53.439Z,46.26
2023-07-18T11:50:57.541Z,46.32
2023-07-18T11:54:00.216Z,46.47
2023-07-18T11:57:03.771Z,45.71
2023-07-18T12:00:09.616Z,45.67
2023-07-18T12:03:12.743Z,45.61
2023-07-18T12:06:17.305Z,45.07
2023-07-18T12:09:20.040Z,45.11
2023-07-18T12:12:22.697Z,44.65
2023-07-18T12:15:25.562Z,44.58
2023-07-18T12:18:28.231Z,44.51
2023-07-18T12:21:32.297Z,43.95
2023-07-18T12:24:34.978Z,44.13
2023-07-18T12:27:38.148Z,44.02
2023-07-18T12:30:40.787Z,44.35
2023-07-18T12:33:43.408Z,43.49
2023-07-18T12:36:47.346Z,43.15
2023-07-18T12:39:49.946Z,43.32
2023-07-18T12:42:52.710Z,43.46
2023-07-18T12:45:56.796Z,43.36
2023-07-18T12:52:07.130Z,43.68
2023-07-18T12:55:10.156Z,43.32
2023-07-18T12:58:12.828Z,42.61
2023-07-18T13:01:15.757Z,42.34
2023-07-18T13:04:18.371Z,41.73
2023-07-18T13:07:22.594Z,41.67
2023-07-18T13:10:25.228Z,41.58
2023-07-18T13:13:27.821Z,41.54
2023-07-18T13:16:30.491Z,41.33
2023-07-18T13:19:33.178Z,41.25
2023-07-18T13:22:37.202Z,40.73
2023-07-18T13:25:39.843Z,40.10
2023-07-18T13:28:42.641Z,40.25
2023-07-18T13:31:45.426Z,40.11
2023-07-18T13:34:48.426Z,39.90
2023-07-18T13:37:52.447Z,39.63
2023-07-18T13:40:55.172Z,39.40
2023-07-18T13:43:58.597Z,38.67
2023-07-18T13:47:01.373Z,38.41
2023-07-18T13:53:20.871Z,38.61
2023-07-18T13:56:23.742Z,38.14
2023-07-18T13:59:26.963Z,37.92
2023-07-18T14:02:29.631Z,37.85
2023-07-18T14:05:32.328Z,37.63
2023-07-18T14:08:36.380Z,37.67
2023-07-18T14:11:39.030Z,37.48
2023-07-18T14:14:41.707Z,37.46
2023-07-18T14:17:44.339Z,37.25
2023-07-18T14:20:48.180Z,37.28
2023-07-18T14:23:52.423Z,37.04
2023-07-18T14:26:55.153Z,36.94
2023-07-18T14:29:57.833Z,37.02
2023-07-18T14:33:01.049Z,37.20
2023-07-18T14:36:05.504Z,36.81
2023-07-18T14:39:10.085Z,36.64
2023-07-18T14:42:12.745Z,36.58
2023-07-18T14:45:15.362Z,36.71
2023-07-18T14:48:18.020Z,36.72
2023-07-18T14:51:21.357Z,36.31
2023-07-18T14:54:25.338Z,36.29
2023-07-18T14:57:28.016Z,36.35
2023-07-18T15:00:30.720Z,36.43
2023-07-18T15:03:33.503Z,36.47
2023-07-18T15:06:36.216Z,36.77
2023-07-18T15:09:40.264Z,36.17
2023-07-18T15:12:45.544Z,36.23
2023-07-18T15:15:48.170Z,36.26
2023-07-18T15:18:51.553Z,36.18
2023-07-18T15:21:54.700Z,36.10
2023-07-18T15:24:58.675Z,36.73
2023-07-18T15:28:01.515Z,36.88
2023-07-18T15:31:04.321Z,36.84
2023-07-18T15:34:07.066Z,36.92
2023-07-18T15:37:09.704Z,36.75
2023-07-18T15:40:14.073Z,37.00
2023-07-18T15:43:16.688Z,36.67
2023-07-18T15:46:19.576Z,36.85
2023-07-18T15:49:22.523Z,36.56
2023-07-18T15:52:27.669Z,37.02
2023-07-18T15:55:31.749Z,37.09
2023-07-18T15:58:34.563Z,36.94
2023-07-18T16:01:37.721Z,37.27
2023-07-18T16:04:40.461Z,37.28
2023-07-18T16:07:43.132Z,37.35
2023-07-18T16:10:47.105Z,37.25
2023-07-18T16:13:49.902Z,36.79
2023-07-18T16:16:52.778Z,36.60
2023-07-18T16:19:57.145Z,36.63
2023-07-18T16:22:59.922Z,37.28
2023-07-18T16:26:03.957Z,37.13
2023-07-18T16:29:06.654Z,37.11
2023-07-18T16:32:09.446Z,36.96
2023-07-18T16:35:12.171Z,37.53
2023-07-18T16:38:14.733Z,37.69
2023-07-18T16:41:18.983Z,38.11
2023-07-18T16:44:22.033Z,38.09
2023-07-18T16:47:24.770Z,38.37
2023-07-18T16:50:27.544Z,38.45
2023-07-18T16:53:30.308Z,38.57
2023-07-18T16:56:36.580Z,38.37
2023-07-18T16:59:39.389Z,38.49
2023-07-18T17:02:42.636Z,38.61
2023-07-18T17:05:45.320Z,38.16
2023-07-18T17:08:47.997Z,37.98
2023-07-18T17:11:51.955Z,38.02
2023-07-18T17:14:56.133Z,38.29
2023-07-18T17:17:58.903Z,38.62
2023-07-18T17:21:01.529Z,38.59
2023-07-18T17:24:05.490Z,39.17
2023-07-18T17:27:09.512Z,38.99
2023-07-18T17:30:12.659Z,38.97
2023-07-18T17:33:15.571Z,38.36
2023-07-18T17:36:18.426Z,38.59
2023-07-18T17:39:21.485Z,38.39
2023-07-18T17:42:26.347Z,37.98
2023-07-18T17:45:29.046Z,38.24
2023-07-18T17:48:31.714Z,38.38
2023-07-18T17:51:34.364Z,38.69
2023-07-18T17:54:37.062Z,38.84
2023-07-18T17:57:41.062Z,38.87
2023-07-18T18:00:45.135Z,39.37
2023-07-18T18:03:47.885Z,39.19
2023-07-18T18:06:50.659Z,39.45
2023-07-18T18:09:53.353Z,39.58
2023-07-18T18:12:57.386Z,39.68
2023-07-18T18:16:08.213Z,39.69
2023-07-18T18:19:11.776Z,39.68
2023-07-18T18:22:14.380Z,39.77
2023-07-18T18:25:17.180Z,39.68
2023-07-18T18:28:22.870Z,39.54
2023-07-18T18:31:25.854Z,39.72
2023-07-18T18:34:29.277Z,40.35
2023-07-18T18:37:31.922Z,40.95
2023-07-18T18:40:34.563Z,41.78
2023-07-18T18:43:38.569Z,42.52
2023-07-18T18:46:41.227Z,42.71
2023-07-18T18:49:44.044Z,43.29
2023-07-18T18:52:46.705Z,43.62
2023-07-18T18:55:49.316Z,44.42
2023-07-18T18:58:53.351Z,44.46
2023-07-18T19:01:56.061Z,44.63
2023-07-18T19:04:58.770Z,45.10
2023-07-18T19:08:01.413Z,45.12
2023-07-18T19:11:07.854Z,45.25
2023-07-18T19:14:12.612Z,45.29
2023-07-18T19:17:15.306Z,45.41
2023-07-18T19:20:18.013Z,45.51
2023-07-18T19:23:20.719Z,45.56
2023-07-18T19:26:23.418Z,45.68
2023-07-18T19:29:27.429Z,45.63
2023-07-18T19:32:30.188Z,45.75
2023-07-18T19:35:32.995Z,45.80
2023-07-18T19:38:36.626Z,46.02
2023-07-18T19:41:40.647Z,46.23
2023-07-18T19:44:46.991Z,46.51
2023-07-18T19:47:51.090Z,46.36
2023-07-18T19:50:53.793Z,46.55
2023-07-18T19:53:57.562Z,46.38
2023-07-18T19:57:00.203Z,46.72
2023-07-18T20:00:07.058Z,46.97
2023-07-18T20:03:09.704Z,47.57
2023-07-18T20:06:12.529Z,48.35
2023-07-18T20:09:15.629Z,49.22
2023-07-18T20:12:18.367Z,50.09
2023-07-18T20:15:22.390Z,50.46
2023-07-18T20:18:25.645Z,50.45
2023-07-18T20:21:28.322Z,50.92
2023-07-18T20:24:30.962Z,51.68
2023-07-18T20:27:38.486Z,52.38
2023-07-18T20:30:42.435Z,53.16
2023-07-18T20:33:45.147Z,53.62
2023-07-18T20:36:49.260Z,54.34
2023-07-18T20:39:51.977Z,55.32
2023-07-18T20:42:54.601Z,55.77
2023-07-18T20:45:59.995Z,55.87
2023-07-18T20:49:03.876Z,55.89
2023-07-18T20:52:08.228Z,55.80
2023-07-18T20:55:10.902Z,55.82
2023-07-18T20:58:13.947Z,56.02
2023-07-18T21:01:18.234Z,56.05
2023-07-18T21:04:21.146Z,56.08
2023-07-18T21:07:23.930Z,55.88
2023-07-18T21:10:26.688Z,55.74
2023-07-18T21:13:29.396Z,55.77
2023-07-18T21:16:34.533Z,55.91
2023-07-18T21:19:37.275Z,55.86
2023-07-18T21:22:40.015Z,55.81
2023-07-18T21:25:43.750Z,55.84
2023-07-18T21:29:02.108Z,56.02
2023-07-18T21:32:09.566Z,56.41
2023-07-18T21:35:12.314Z,56.76
2023-07-18T21:38:15.016Z,57.28
2023-07-18T21:41:20.369Z,57.57
2023-07-18T21:44:23.381Z,57.94
2023-07-18T21:47:27.594Z,58.03
2023-07-18T21:50:30.338Z,58.42
2023-07-18T21:53:33.312Z,58.47
2023-07-18T21:56:35.951Z,58.79
2023-07-18T21:59:38.572Z,58.98
2023-07-18T22:02:42.781Z,59.28
2023-07-18T22:05:45.478Z,59.49
2023-07-18T22:08:48.139Z,59.46
2023-07-18T22:11:51.672Z,59.74
2023-07-18T22:14:54.511Z,60.27
2023-07-18T22:18:08.934Z,60.41
2023-07-18T22:21:14.928Z,60.74
2023-07-18T22:24:18.076Z,60.72
2023-07-18T22:27:20.699Z,60.87
2023-07-18T22:30:23.370Z,61.07
2023-07-18T22:33:27.642Z,61.29
2023-07-18T22:36:30.244Z,61.45
2023-07-18T22:39:36.564Z,62.02
2023-07-18T22:42:40.139Z,62.17
2023-07-18T22:45:43.175Z,62.32
2023-07-18T22:48:47.302Z,62.72
2023-07-18T22:51:49.984Z,62.73
2023-07-18T22:54:52.562Z,62.67
2023-07-18T22:57:55.218Z,62.54
2023-07-18T23:00:57.925Z,62.37
2023-07-18T23:04:02.012Z,61.99
2023-07-18T23:07:05.392Z,61.57
2023-07-18T23:10:09.150Z,61.75
2023-07-18T23:13:12.539Z,61.48
2023-07-18T23:16:16.103Z,61.92
2023-07-18T23:19:20.156Z,62.42
2023-07-18T23:22:22.866Z,62.69
2023-07-18T23:25:26.025Z,62.99
2023-07-18T23:28:28.680Z,63.11
2023-07-18T23:31:31.372Z,63.31
2023-07-18T23:34:35.344Z,63.33
2023-07-18T23:37:38.024Z,63.69
2023-07-18T23:40:40.668Z,63.75
2023-07-18T23:43:43.404Z,63.79
2023-07-18T23:46:46.055Z,63.90
2023-07-18T23:49:50.070Z,63.78
2023-07-18T23:52:52.782Z,64.11
2023-07-18T23:55:56.068Z,63.65
2023-07-18T23:58:58.761Z,63.82
